KRKW/RKW METAR and TAF weather

Enter ICAO airport designator
Station Type Date Time Source
KRKW METAR 2019/10/15 09:15 UTC NOAA

KRKW 150915Z AUTO 04004KT 10SM CLR 09/03 A3011 RMK A01


Station Type Date Time Source
KRKW Decoded METAR 2019/10/15 09:15 UTC NOAA

Station name not available
Oct 15, 2019 - 05:15 AM EDT / 2019.10.15 0915 UTC
Wind: from the NE (040 degrees) at 5 MPH (4 KT):0
Visibility: 10 mile(s):0
Sky conditions: clear
Temperature: 48 F (9 C)
Dew Point: 37 F (3 C)
Relative Humidity: 66%
Pressure (altimeter): 30.11 in. Hg (1019 hPa)
ob: KRKW 150915Z AUTO 04004KT 10SM CLR 09/03 A3011 RMK A01
cycle: 9

Station Type Date Time Source
KRKW TAF 2009/08/31 19:50 UTC NOAA

METAR KRKW 311950Z AUTO VRB05KT 10SM CLR 25/13 A3010
RMK AO1 T02500133 $

Example: see airport list